Time;durP1;ratioP1;P1;durP2;ratioP2;P2;SDS_P1;SDS_P2;PMS_P1;PMS_P2;Temp;Humidity;BMP_temperature;BMP_pressure;BME280_temperature;BME280_humidity;BME280_pressure;Samples;Min_cycle;Max_cycle;Signal;HPM_P1;HPM_P2
2024/04/03 00:00:48;;;;;;;3.60;2.17;;;14.10;78.10;;;;;;5039249;28;20026;-35
2024/04/03 00:03:14;;;;;;;3.13;2.30;;;14.20;78.20;;;;;;5038368;28;20081;-37
2024/04/03 00:05:40;;;;;;;3.88;2.65;;;14.20;78.20;;;;;;5040770;28;20028;-36
2024/04/03 00:08:06;;;;;;;3.85;2.40;;;14.20;78.20;;;;;;5039341;28;20033;-41
2024/04/03 00:10:32;;;;;;;2.72;1.85;;;14.10;78.10;;;;;;5035415;28;20448;-37
2024/04/03 00:12:58;;;;;;;3.42;2.38;;;14.20;78.20;;;;;;5039460;28;20017;-38
2024/04/03 00:15:24;;;;;;;3.65;2.50;;;14.10;78.20;;;;;;5039847;28;20022;-34
2024/04/03 00:17:52;;;;;;;3.20;2.33;;;14.10;78.20;;;;;;5033831;28;20067;-39
2024/04/03 00:20:18;;;;;;;2.75;2.03;;;14.20;78.30;;;;;;5064180;28;20040;-39
2024/04/03 00:22:44;;;;;;;4.38;2.35;;;14.10;78.20;;;;;;5040117;28;20014;-35
2024/04/03 00:25:10;;;;;;;3.22;2.30;;;14.10;78.20;;;;;;5057161;28;20176;-39
2024/04/03 00:27:36;;;;;;;3.67;2.30;;;14.20;78.20;;;;;;5038377;28;20088;-35
2024/04/03 00:30:01;;;;;;;3.53;2.25;;;14.10;78.20;;;;;;5039237;28;20033;-35
2024/04/03 00:32:27;;;;;;;4.10;2.25;;;14.10;78.20;;;;;;5036793;28;20025;-38
2024/04/03 00:34:53;;;;;;;4.07;2.50;;;14.10;78.20;;;;;;5059452;28;20029;-35
2024/04/03 00:37:20;;;;;;;4.03;2.50;;;14.10;78.20;;;;;;5038753;28;20369;-36
2024/04/03 00:39:46;;;;;;;4.43;2.80;;;14.10;78.20;;;;;;5035256;28;20030;-33
2024/04/03 00:42:12;;;;;;;4.18;2.50;;;14.10;78.20;;;;;;5053160;28;20064;-33
2024/04/03 00:44:47;;;;;;;3.03;2.25;;;14.10;78.20;;;;;;5036962;28;20389;-32
2024/04/03 00:47:14;;;;;;;4.10;2.50;;;14.20;78.30;;;;;;5039867;28;20036;-36
2024/04/03 00:49:41;;;;;;;2.70;2.33;;;14.10;78.20;;;;;;5037100;28;20026;-35
2024/04/03 00:52:06;;;;;;;2.70;2.25;;;14.10;78.20;;;;;;5039071;28;20018;-33
2024/04/03 00:54:33;;;;;;;3.67;2.78;;;14.10;78.20;;;;;;5035116;28;20057;-36
2024/04/03 00:56:59;;;;;;;4.53;2.70;;;14.10;78.20;;;;;;5037911;28;20049;-35
2024/04/03 00:59:27;;;;;;;6.15;2.83;;;14.10;78.20;;;;;;5037400;28;20045;-32
2024/04/03 01:01:53;;;;;;;3.88;2.80;;;14.10;78.20;;;;;;5032380;28;20029;-35
2024/04/03 01:04:19;;;;;;;4.75;2.60;;;14.10;78.20;;;;;;5035042;28;20127;-38
2024/04/03 01:06:45;;;;;;;3.95;2.60;;;14.10;78.30;;;;;;5035118;28;20029;-40
2024/04/03 01:09:10;;;;;;;2.58;2.22;;;14.10;78.30;;;;;;5053071;28;20029;-34
2024/04/03 01:11:36;;;;;;;4.55;2.75;;;14.10;78.30;;;;;;5059780;28;20021;-35
2024/04/03 01:14:02;;;;;;;3.45;2.38;;;14.10;78.30;;;;;;5034393;28;20017;-34
2024/04/03 01:16:28;;;;;;;3.25;2.60;;;14.10;78.30;;;;;;5036806;28;20054;-35
2024/04/03 01:18:53;;;;;;;3.83;2.70;;;14.10;78.30;;;;;;5035639;28;20453;-39
2024/04/03 01:21:19;;;;;;;4.57;2.75;;;14.10;78.30;;;;;;5037577;28;20032;-35
2024/04/03 01:23:51;;;;;;;2.88;2.45;;;14.10;78.30;;;;;;5038510;28;20057;-39
2024/04/03 01:26:17;;;;;;;3.53;2.90;;;14.10;78.30;;;;;;5035533;28;20043;-33
2024/04/03 01:28:43;;;;;;;3.17;2.42;;;14.10;78.30;;;;;;5041771;28;20041;-42
2024/04/03 01:31:08;;;;;;;3.05;2.60;;;14.10;78.30;;;;;;5040654;28;20036;-37
2024/04/03 01:33:34;;;;;;;3.67;2.80;;;14.10;78.30;;;;;;5036588;28;20418;-39
2024/04/03 01:36:01;;;;;;;3.58;2.90;;;14.10;78.30;;;;;;5040578;28;20029;-34
2024/04/03 01:38:26;;;;;;;3.40;2.65;;;14.10;78.30;;;;;;5039467;28;20033;-36
2024/04/03 01:40:53;;;;;;;2.80;2.38;;;14.10;78.90;;;;;;5020444;28;20152;-34
2024/04/03 01:43:18;;;;;;;4.93;2.80;;;14.10;78.30;;;;;;5037827;28;20060;-33
2024/04/03 01:45:44;;;;;;;3.50;2.40;;;14.10;78.30;;;;;;5038722;28;20018;-35
2024/04/03 01:48:10;;;;;;;3.33;2.60;;;14.10;78.40;;;;;;5040818;28;20052;-35
2024/04/03 01:50:38;;;;;;;3.60;2.53;;;14.10;78.40;;;;;;5054022;28;20420;-37
2024/04/03 01:53:04;;;;;;;3.50;2.60;;;14.10;78.40;;;;;;5032866;28;20044;-35
2024/04/03 01:55:30;;;;;;;3.55;2.70;;;14.10;78.40;;;;;;5039625;28;20026;-35
2024/04/03 01:57:55;;;;;;;2.65;2.45;;;14.10;78.40;;;;;;5042199;28;20049;-32
2024/04/03 02:00:21;;;;;;;3.83;2.67;;;14.00;78.30;;;;;;5035685;28;20168;-35
2024/04/03 02:02:47;;;;;;;2.83;2.50;;;14.00;78.30;;;;;;5037757;28;20021;-37
2024/04/03 02:05:13;;;;;;;2.53;2.10;;;14.10;78.40;;;;;;5018211;28;20084;-33
2024/04/03 02:07:38;;;;;;;2.58;2.25;;;14.10;78.40;;;;;;5030260;28;20072;-34
2024/04/03 02:10:04;;;;;;;3.50;2.67;;;14.00;78.40;;;;;;5039545;28;20017;-36
2024/04/03 02:12:30;;;;;;;3.05;2.30;;;14.00;78.40;;;;;;5037092;28;20072;-33
2024/04/03 02:14:56;;;;;;;3.92;2.80;;;14.00;78.40;;;;;;5042028;28;20030;-34
2024/04/03 02:17:22;;;;;;;4.00;2.63;;;14.00;78.40;;;;;;5035746;28;20028;-32
2024/04/03 02:19:49;;;;;;;2.72;2.28;;;14.00;78.50;;;;;;5035076;28;20429;-33
2024/04/03 02:22:14;;;;;;;2.90;2.42;;;14.10;78.50;;;;;;5035443;28;20029;-34
2024/04/03 02:24:40;;;;;;;3.15;2.30;;;14.00;78.40;;;;;;5036950;28;20034;-36
2024/04/03 02:27:06;;;;;;;3.28;2.42;;;14.00;78.40;;;;;;5028494;28;20022;-36
2024/04/03 02:29:32;;;;;;;3.60;2.60;;;14.00;78.40;;;;;;5026583;28;20121;-36
2024/04/03 02:31:58;;;;;;;3.47;2.38;;;14.00;78.40;;;;;;5038792;28;20029;-37
2024/04/03 02:34:24;;;;;;;3.22;2.28;;;14.00;78.40;;;;;;5037315;28;20037;-35
2024/04/03 02:36:49;;;;;;;2.55;2.28;;;14.00;78.40;;;;;;5033621;28;20112;-34
2024/04/03 02:39:15;;;;;;;3.35;2.67;;;14.00;78.40;;;;;;5041119;28;20029;-36
2024/04/03 02:41:41;;;;;;;2.95;2.47;;;14.10;78.40;;;;;;5039691;28;20457;-33
2024/04/03 02:44:07;;;;;;;4.03;2.40;;;14.00;78.40;;;;;;5027941;28;20567;-34
2024/04/03 02:46:33;;;;;;;3.65;2.53;;;14.00;78.40;;;;;;5039980;28;20021;-35
2024/04/03 02:48:58;;;;;;;2.15;1.95;;;14.00;78.40;;;;;;5035537;28;20021;-35
2024/04/03 02:51:24;;;;;;;2.67;2.28;;;14.00;78.40;;;;;;5044458;28;20389;-37
2024/04/03 02:53:50;;;;;;;3.88;2.70;;;14.00;78.40;;;;;;5034577;28;20017;-37
2024/04/03 02:56:16;;;;;;;3.20;2.40;;;14.00;78.40;;;;;;5065244;28;20017;-33
2024/04/03 02:58:41;;;;;;;2.60;2.00;;;14.00;78.40;;;;;;5024898;28;20026;-35
2024/04/03 03:01:09;;;;;;;2.63;2.20;;;14.00;78.40;;;;;;5052603;28;20462;-34
2024/04/03 03:03:36;;;;;;;3.03;2.42;;;14.00;78.40;;;;;;5028432;28;20436;-38
2024/04/03 03:06:05;;;;;;;2.95;2.28;;;14.00;78.40;;;;;;5039413;28;20045;-32
2024/04/03 03:08:32;;;;;;;2.80;2.10;;;14.00;78.40;;;;;;5037756;28;20109;-36
2024/04/03 03:10:59;;;;;;;3.30;2.50;;;14.00;78.50;;;;;;5033066;28;20042;-37
2024/04/03 03:13:26;;;;;;;3.85;2.45;;;14.00;78.40;;;;;;5036073;28;20081;-33
2024/04/03 03:15:53;;;;;;;3.05;2.15;;;14.00;78.40;;;;;;5033321;28;20021;-34
2024/04/03 03:18:20;;;;;;;2.72;2.05;;;14.00;78.50;;;;;;5033103;28;20022;-38
2024/04/03 03:20:47;;;;;;;3.55;2.25;;;14.00;79.10;;;;;;5034002;28;20028;-34
2024/04/03 03:23:13;;;;;;;3.17;2.20;;;14.00;79.10;;;;;;5038572;28;20025;-35
2024/04/03 03:25:39;;;;;;;2.83;2.20;;;14.00;78.50;;;;;;5034578;28;20040;-34
2024/04/03 03:28:05;;;;;;;2.50;2.10;;;14.00;78.50;;;;;;5035567;28;20026;-35
2024/04/03 03:30:31;;;;;;;3.17;2.15;;;14.00;78.50;;;;;;5031550;28;20017;-33
2024/04/03 03:32:56;;;;;;;4.00;2.30;;;14.00;78.50;;;;;;5057009;28;20044;-36
2024/04/03 03:35:22;;;;;;;3.40;2.20;;;14.00;78.50;;;;;;5037633;28;20017;-36
2024/04/03 03:37:48;;;;;;;2.20;2.00;;;14.00;78.50;;;;;;5038318;28;20029;-36
2024/04/03 03:40:13;;;;;;;2.63;2.05;;;14.00;78.50;;;;;;5035680;28;20022;-34
2024/04/03 03:42:39;;;;;;;2.80;2.00;;;14.00;78.50;;;;;;5034385;28;20354;-33
2024/04/03 03:45:05;;;;;;;3.13;2.33;;;14.00;78.50;;;;;;5036250;28;20138;-35
2024/04/03 03:47:31;;;;;;;3.40;2.00;;;14.00;78.50;;;;;;5029450;28;20034;-35
2024/04/03 03:52:42;;;;;;;2.60;2.03;;;14.00;78.50;;;;;;5034218;28;20029;-34
2024/04/03 03:55:08;;;;;;;2.40;1.98;;;13.90;79.10;;;;;;5032286;28;20036;-34
2024/04/03 03:57:34;;;;;;;2.83;2.20;;;13.90;78.50;;;;;;5037302;28;20029;-37
2024/04/03 04:00:00;;;;;;;3.00;2.33;;;13.90;78.50;;;;;;5037148;28;20030;-35
2024/04/03 04:02:26;;;;;;;2.55;1.80;;;13.90;78.50;;;;;;5038394;28;20029;-36
2024/04/03 04:04:52;;;;;;;2.17;1.98;;;13.90;78.50;;;;;;5030777;28;20063;-35
2024/04/03 04:07:22;;;;;;;2.60;2.10;;;13.90;78.50;;;;;;5036751;28;20033;-36
2024/04/03 04:09:52;;;;;;;2.50;1.80;;;14.00;78.50;;;;;;5038484;28;20035;-33
2024/04/03 04:12:18;;;;;;;2.65;2.13;;;14.00;78.50;;;;;;5040485;28;20033;-36
2024/04/03 04:14:49;;;;;;;3.40;2.30;;;13.90;78.50;;;;;;5039506;28;20385;-31
2024/04/03 04:17:15;;;;;;;2.45;2.13;;;13.90;78.50;;;;;;5034514;28;20097;-36
2024/04/03 04:19:41;;;;;;;2.83;2.10;;;13.90;78.50;;;;;;5040701;28;20456;-38
2024/04/03 04:22:07;;;;;;;2.20;1.80;;;13.90;78.50;;;;;;5035487;28;20030;-34
2024/04/03 04:24:35;;;;;;;2.45;1.80;;;13.90;78.50;;;;;;5038538;28;20116;-34
2024/04/03 04:27:02;;;;;;;2.63;2.03;;;13.90;78.50;;;;;;5038893;28;20583;-36
2024/04/03 04:29:28;;;;;;;3.08;2.13;;;13.90;78.50;;;;;;5063990;28;20033;-38
2024/04/03 04:31:54;;;;;;;2.53;1.85;;;13.90;78.50;;;;;;5038865;28;20079;-33
2024/04/03 04:34:20;;;;;;;2.83;1.88;;;13.90;78.50;;;;;;5037426;28;20036;-38
2024/04/03 04:36:45;;;;;;;2.58;1.90;;;13.90;78.50;;;;;;5037784;28;20060;-37
2024/04/03 04:39:11;;;;;;;3.33;2.08;;;13.90;78.50;;;;;;5037343;28;20041;-37
2024/04/03 04:41:37;;;;;;;2.15;1.95;;;13.90;78.50;;;;;;5039982;28;20028;-39
2024/04/03 04:44:02;;;;;;;2.78;1.95;;;13.90;78.60;;;;;;5056715;28;20040;-36
2024/04/03 04:46:28;;;;;;;3.08;1.92;;;13.90;78.60;;;;;;5036036;28;20132;-35
2024/04/03 04:48:54;;;;;;;2.47;2.00;;;13.90;78.50;;;;;;5032510;28;20033;-40
2024/04/03 04:51:21;;;;;;;2.40;2.00;;;13.90;78.60;;;;;;5034983;28;20088;-32
2024/04/03 04:53:46;;;;;;;3.42;2.30;;;13.90;78.50;;;;;;5035868;28;20025;-34
2024/04/03 04:56:12;;;;;;;2.67;1.80;;;13.90;78.60;;;;;;5032533;28;20068;-36
2024/04/03 04:58:38;;;;;;;2.80;1.88;;;13.80;78.50;;;;;;5054268;28;20056;-36
2024/04/03 05:01:06;;;;;;;2.50;1.90;;;13.90;78.60;;;;;;5034719;28;20025;-34
2024/04/03 05:03:32;;;;;;;2.50;2.00;;;13.90;78.60;;;;;;5054354;28;20066;-35
2024/04/03 05:05:59;;;;;;;2.08;1.80;;;13.90;78.60;;;;;;5070450;28;20025;-35
2024/04/03 05:08:25;;;;;;;2.30;1.75;;;13.90;78.60;;;;;;5034990;28;22007;-36
2024/04/03 05:10:56;;;;;;;2.63;1.88;;;13.90;78.60;;;;;;5039021;28;20034;-34
2024/04/03 05:13:21;;;;;;;3.00;2.10;;;13.80;78.50;;;;;;5037310;28;20470;-35
2024/04/03 05:15:47;;;;;;;2.40;1.90;;;13.80;78.50;;;;;;5036369;28;20025;-35
2024/04/03 05:18:13;;;;;;;2.53;1.73;;;13.80;78.50;;;;;;5049664;28;20085;-33
2024/04/03 05:20:40;;;;;;;2.03;1.83;;;13.80;78.50;;;;;;5034141;28;20087;-34
2024/04/03 05:23:06;;;;;;;2.58;1.77;;;13.90;78.60;;;;;;5033439;28;20120;-36
2024/04/03 05:25:32;;;;;;;2.90;2.00;;;13.80;78.60;;;;;;5032814;28;20103;-35
2024/04/03 05:27:58;;;;;;;2.58;1.80;;;13.80;78.60;;;;;;5034032;28;20477;-35
2024/04/03 05:30:27;;;;;;;1.95;1.80;;;13.80;78.60;;;;;;5017090;28;20025;-35
2024/04/03 05:32:53;;;;;;;2.60;1.83;;;13.80;78.60;;;;;;5034515;28;20550;-37
2024/04/03 05:35:19;;;;;;;2.67;1.80;;;13.80;78.60;;;;;;5034316;28;20038;-33
2024/04/03 05:37:45;;;;;;;2.15;1.70;;;13.80;78.70;;;;;;5036283;28;20064;-35
2024/04/03 05:40:12;;;;;;;3.20;1.77;;;13.80;78.70;;;;;;5032322;28;20029;-34
2024/04/03 05:42:37;;;;;;;2.83;1.90;;;13.80;78.70;;;;;;5048593;28;20190;-36
2024/04/03 05:45:03;;;;;;;3.47;1.90;;;13.80;78.80;;;;;;5039144;28;20065;-33
2024/04/03 05:47:30;;;;;;;2.15;1.80;;;13.80;78.80;;;;;;5038277;28;20045;-35
2024/04/03 05:49:56;;;;;;;2.50;1.65;;;13.80;78.70;;;;;;5041577;28;20025;-35
2024/04/03 05:52:22;;;;;;;2.08;1.77;;;13.80;78.80;;;;;;5037964;28;20033;-37
2024/04/03 05:54:48;;;;;;;2.38;1.60;;;13.80;78.80;;;;;;5032894;28;20073;-33
2024/04/03 05:57:17;;;;;;;2.80;1.80;;;13.80;78.80;;;;;;5034850;28;20033;-34
2024/04/03 05:59:44;;;;;;;2.75;1.75;;;13.70;78.70;;;;;;5040324;28;20171;-34
2024/04/03 06:02:11;;;;;;;3.35;2.05;;;13.80;78.80;;;;;;5031686;28;20021;-33
2024/04/03 06:04:38;;;;;;;2.83;1.75;;;13.80;78.80;;;;;;5036363;28;20051;-34
2024/04/03 06:07:04;;;;;;;2.70;2.00;;;13.80;78.80;;;;;;5048207;28;20022;-32
2024/04/03 06:09:30;;;;;;;2.50;1.80;;;13.80;78.80;;;;;;5040449;28;20638;-38
2024/04/03 06:11:56;;;;;;;2.20;1.70;;;13.80;78.80;;;;;;5042207;28;20596;-37
2024/04/03 06:14:22;;;;;;;2.88;1.70;;;13.80;78.80;;;;;;5035509;28;20036;-41
2024/04/03 06:16:48;;;;;;;2.30;1.75;;;13.80;78.80;;;;;;5030840;28;20116;-41
2024/04/03 06:19:15;;;;;;;4.18;1.98;;;13.80;78.80;;;;;;5034422;28;20516;-34
2024/04/03 06:21:41;;;;;;;2.17;1.80;;;13.80;78.80;;;;;;5038993;28;20034;-37
2024/04/03 06:24:07;;;;;;;2.83;1.90;;;13.70;78.80;;;;;;5007358;28;20120;-34
2024/04/03 06:26:34;;;;;;;2.20;1.88;;;13.80;78.80;;;;;;5033025;28;20045;-36
2024/04/03 06:29:03;;;;;;;2.33;1.80;;;13.80;78.90;;;;;;5033464;28;20038;-34
2024/04/03 06:31:30;;;;;;;2.72;2.00;;;13.80;78.90;;;;;;5029287;28;20026;-34
2024/04/03 06:34:02;;;;;;;3.50;1.80;;;13.80;78.90;;;;;;5037876;28;20029;-36
2024/04/03 06:36:29;;;;;;;2.00;1.80;;;13.80;78.90;;;;;;5037962;28;20021;-32
2024/04/03 06:38:55;;;;;;;2.30;1.77;;;13.80;78.80;;;;;;5054658;28;20025;-36
2024/04/03 06:41:21;;;;;;;2.63;1.88;;;13.80;78.80;;;;;;5035036;28;20025;-34
2024/04/03 06:43:47;;;;;;;2.97;2.00;;;13.80;78.80;;;;;;5031265;28;20033;-33
2024/04/03 06:46:12;;;;;;;2.90;1.98;;;13.80;78.80;;;;;;5040244;28;20025;-38
2024/04/03 06:48:39;;;;;;;2.97;1.90;;;13.80;78.80;;;;;;5037366;28;20057;-35
2024/04/03 06:51:04;;;;;;;2.88;2.00;;;13.80;78.80;;;;;;5040627;28;20089;-36
2024/04/03 06:53:31;;;;;;;2.50;1.80;;;13.80;78.80;;;;;;5051050;28;20045;-37
2024/04/03 06:56:00;;;;;;;2.83;1.90;;;13.80;78.80;;;;;;5037731;28;20017;-34
2024/04/03 06:58:28;;;;;;;2.38;1.80;;;13.80;78.80;;;;;;5021799;28;20040;-33
2024/04/03 07:00:53;;;;;;;2.40;1.80;;;13.80;78.80;;;;;;5067028;28;20026;-37
2024/04/03 07:03:19;;;;;;;3.08;2.00;;;13.80;78.80;;;;;;5038416;28;20048;-32
2024/04/03 07:05:45;;;;;;;3.08;1.90;;;13.80;78.80;;;;;;5040243;28;20132;-37
2024/04/03 07:08:11;;;;;;;1.67;1.55;;;13.80;78.70;;;;;;5032379;28;20432;-32
2024/04/03 07:10:38;;;;;;;3.30;1.80;;;13.90;78.80;;;;;;5037874;28;20081;-35
2024/04/03 07:13:04;;;;;;;2.85;1.70;;;13.80;78.70;;;;;;5037309;28;20037;-36
2024/04/03 07:15:33;;;;;;;2.67;1.90;;;13.80;78.80;;;;;;5033725;28;20034;-38
2024/04/03 07:18:02;;;;;;;1.85;1.63;;;13.90;78.80;;;;;;5036920;28;20021;-35
2024/04/03 07:20:29;;;;;;;2.25;1.90;;;13.80;78.70;;;;;;5065540;28;20364;-33
2024/04/03 07:22:56;;;;;;;2.47;1.90;;;13.80;78.70;;;;;;5038063;28;20021;-33
2024/04/03 07:25:23;;;;;;;1.80;1.70;;;13.90;78.80;;;;;;5038461;28;20029;-40
2024/04/03 07:27:50;;;;;;;2.90;1.77;;;13.90;78.80;;;;;;5054440;28;20029;-39
2024/04/03 07:30:16;;;;;;;2.92;1.90;;;13.90;78.80;;;;;;5037407;28;20017;-36
2024/04/03 07:32:42;;;;;;;2.33;1.80;;;13.90;78.80;;;;;;5040857;28;20029;-37
2024/04/03 07:35:08;;;;;;;1.70;1.60;;;13.90;78.80;;;;;;5026636;28;20025;-37
2024/04/03 07:37:40;;;;;;;2.85;1.80;;;13.90;78.80;;;;;;5037336;28;20033;-35
2024/04/03 07:40:10;;;;;;;2.67;1.88;;;13.90;78.80;;;;;;5039194;28;20158;-39
2024/04/03 07:42:40;;;;;;;2.70;1.80;;;13.90;78.80;;;;;;5033923;28;20032;-37
2024/04/03 07:45:09;;;;;;;3.17;1.73;;;13.90;78.80;;;;;;5044917;28;20037;-36
2024/04/03 07:47:35;;;;;;;2.75;2.13;;;13.90;78.80;;;;;;5029878;28;20021;-35
2024/04/03 07:50:05;;;;;;;2.78;1.80;;;14.00;78.80;;;;;;5037996;28;20085;-35
2024/04/03 07:52:32;;;;;;;2.55;1.98;;;14.00;78.80;;;;;;5049700;28;20025;-32
2024/04/03 07:54:58;;;;;;;2.33;1.85;;;14.00;78.80;;;;;;5037649;28;20030;-36
2024/04/03 07:57:23;;;;;;;3.15;1.88;;;14.00;78.80;;;;;;5004384;28;20116;-36
2024/04/03 07:59:49;;;;;;;2.42;1.75;;;14.00;78.80;;;;;;5043534;28;20032;-36
2024/04/03 08:02:15;;;;;;;2.17;1.80;;;14.00;78.70;;;;;;5041296;28;20021;-31
2024/04/03 08:04:41;;;;;;;3.80;2.00;;;14.00;78.70;;;;;;5038887;28;20109;-36
2024/04/03 08:07:09;;;;;;;2.92;1.83;;;14.00;78.80;;;;;;5037978;28;20022;-35
2024/04/03 08:09:35;;;;;;;2.58;1.98;;;14.00;78.80;;;;;;5037505;28;20064;-35
2024/04/03 08:12:01;;;;;;;2.78;1.70;;;14.00;78.70;;;;;;5040418;28;20026;-36
2024/04/03 08:14:27;;;;;;;2.58;1.80;;;14.10;78.80;;;;;;5041201;28;20032;-35
2024/04/03 08:16:56;;;;;;;3.00;1.90;;;14.10;78.80;;;;;;5034740;28;20029;-36
2024/04/03 08:19:23;;;;;;;3.33;1.63;;;14.10;78.80;;;;;;5039668;28;20371;-38
2024/04/03 08:21:49;;;;;;;2.42;1.67;;;14.10;78.80;;;;;;5041455;28;20028;-32
2024/04/03 08:24:15;;;;;;;1.95;1.65;;;14.10;78.80;;;;;;5037996;28;20033;-32
2024/04/03 08:26:41;;;;;;;2.83;1.77;;;14.10;78.70;;;;;;5039983;28;20071;-37
2024/04/03 08:29:06;;;;;;;2.85;1.73;;;14.10;78.80;;;;;;5014833;28;20021;-32
2024/04/03 08:31:32;;;;;;;3.90;2.00;;;14.10;78.70;;;;;;5050542;28;20029;-34
2024/04/03 08:33:58;;;;;;;2.65;1.77;;;14.10;78.70;;;;;;5041584;28;20025;-34
2024/04/03 08:36:27;;;;;;;2.90;1.83;;;14.10;78.70;;;;;;5041920;28;20350;-36
2024/04/03 08:38:53;;;;;;;2.72;1.88;;;14.20;78.80;;;;;;5035264;28;20021;-33
2024/04/03 08:41:19;;;;;;;2.55;1.70;;;14.20;78.70;;;;;;5036205;28;20021;-35
2024/04/03 08:43:47;;;;;;;2.53;1.70;;;14.20;78.70;;;;;;5035424;28;20041;-38
2024/04/03 08:46:14;;;;;;;3.10;2.03;;;14.20;78.70;;;;;;5042933;28;20347;-38
2024/04/03 08:48:40;;;;;;;1.75;1.55;;;14.20;78.70;;;;;;5036652;28;20504;-39
2024/04/03 08:51:06;;;;;;;1.83;1.55;;;14.20;78.70;;;;;;5039084;28;20025;-41
2024/04/03 08:53:32;;;;;;;1.73;1.60;;;14.20;78.70;;;;;;5033300;28;20066;-36
2024/04/03 08:55:59;;;;;;;2.05;1.60;;;14.30;78.70;;;;;;5032045;28;20029;-40
2024/04/03 08:58:25;;;;;;;3.60;1.75;;;14.20;78.70;;;;;;5042274;28;20025;-37
2024/04/03 09:00:52;;;;;;;2.22;1.67;;;14.20;78.70;;;;;;5037137;28;20025;-39
2024/04/03 09:03:21;;;;;;;2.13;1.73;;;14.20;78.70;;;;;;5042687;28;20030;-40
2024/04/03 09:05:49;;;;;;;2.35;1.63;;;14.20;78.60;;;;;;5066929;28;20037;-36
2024/04/03 09:08:15;;;;;;;1.80;1.70;;;14.30;78.70;;;;;;5030854;28;20497;-40
2024/04/03 09:10:49;;;;;;;1.75;1.55;;;14.30;78.70;;;;;;5032921;28;20037;-38
2024/04/03 09:13:16;;;;;;;2.67;1.60;;;14.30;78.70;;;;;;5035301;28;20034;-40
2024/04/03 09:15:42;;;;;;;2.58;1.75;;;14.30;78.70;;;;;;5040366;28;20042;-36
2024/04/03 09:18:10;;;;;;;2.40;1.70;;;14.30;78.70;;;;;;5037322;28;20533;-40
2024/04/03 09:20:40;;;;;;;2.58;1.70;;;14.30;78.60;;;;;;5032899;28;20036;-37
2024/04/03 09:23:08;;;;;;;2.03;1.60;;;14.30;78.60;;;;;;5023752;28;20025;-40
2024/04/03 09:25:35;;;;;;;1.95;1.67;;;14.30;78.60;;;;;;5036801;28;20030;-38
2024/04/03 09:28:09;;;;;;;3.38;1.80;;;14.30;78.60;;;;;;5037261;28;20025;-38
2024/04/03 09:30:39;;;;;;;2.17;1.70;;;14.40;78.70;;;;;;5069261;28;20040;-39
2024/04/03 09:33:05;;;;;;;2.80;1.73;;;14.40;78.70;;;;;;5025181;28;20049;-38
2024/04/03 09:35:35;;;;;;;2.47;1.73;;;14.40;78.60;;;;;;5036623;28;20085;-36
2024/04/03 09:38:02;;;;;;;2.30;1.70;;;14.40;78.60;;;;;;5034538;28;20030;-41
2024/04/03 09:40:29;;;;;;;2.33;1.83;;;14.40;78.60;;;;;;5034283;28;20048;-39
2024/04/03 09:42:57;;;;;;;2.80;1.77;;;14.40;78.60;;;;;;5036840;28;20022;-37
2024/04/03 09:45:24;;;;;;;2.83;2.00;;;14.40;78.60;;;;;;5037420;28;20037;-35
2024/04/03 09:48:05;;;;;;;1.77;1.55;;;14.40;78.60;;;;;;5028957;28;20032;-36
2024/04/03 09:50:45;;;;;;;2.78;1.80;;;14.40;78.60;;;;;;5040545;28;20163;-39
2024/04/03 09:53:23;;;;;;;1.77;1.50;;;14.40;78.60;;;;;;5034995;28;20025;-39
2024/04/03 09:55:51;;;;;;;1.92;1.67;;;14.40;78.60;;;;;;5032437;28;20095;-39
2024/04/03 09:58:26;;;;;;;2.10;1.70;;;14.40;78.60;;;;;;5033198;28;20074;-39
2024/04/03 10:00:57;;;;;;;2.05;1.60;;;14.50;78.70;;;;;;5032451;28;20033;-39
2024/04/03 10:03:25;;;;;;;1.63;1.52;;;14.40;78.60;;;;;;5040088;28;20038;-39
2024/04/03 10:06:09;;;;;;;1.83;1.60;;;14.40;78.60;;;;;;5048118;28;20089;-38
2024/04/03 10:08:41;;;;;;;3.17;1.77;;;14.50;78.60;;;;;;5035022;28;20029;-42
2024/04/03 10:11:08;;;;;;;2.22;1.75;;;14.50;78.60;;;;;;5033439;28;20048;-41
2024/04/03 10:13:36;;;;;;;2.33;1.75;;;14.50;78.60;;;;;;5036858;28;20036;-42
2024/04/03 10:16:09;;;;;;;2.83;1.60;;;14.50;78.60;;;;;;5040630;28;20365;-41
2024/04/03 10:18:45;;;;;;;2.05;1.50;;;14.50;78.60;;;;;;5037522;28;20029;-41
2024/04/03 10:21:12;;;;;;;2.00;1.80;;;14.60;78.60;;;;;;5039137;28;20302;-39
2024/04/03 10:23:40;;;;;;;2.03;1.60;;;14.60;78.60;;;;;;5039927;28;20026;-41
2024/04/03 10:26:07;;;;;;;1.67;1.58;;;14.60;78.60;;;;;;5035127;28;20022;-42
2024/04/03 10:28:33;;;;;;;2.17;1.60;;;14.60;78.60;;;;;;5022029;28;20542;-40
2024/04/03 10:30:59;;;;;;;2.28;1.70;;;14.60;78.60;;;;;;5044785;28;20051;-41
2024/04/03 10:33:28;;;;;;;1.60;1.48;;;14.60;78.60;;;;;;5047262;28;20516;-39
2024/04/03 10:35:54;;;;;;;2.15;1.60;;;14.60;78.60;;;;;;5041688;28;20028;-42
2024/04/03 10:38:20;;;;;;;2.55;1.77;;;14.70;78.60;;;;;;5037954;28;20053;-42
2024/04/03 10:40:48;;;;;;;1.80;1.60;;;14.70;78.60;;;;;;5033533;28;20096;-46
2024/04/03 10:43:14;;;;;;;2.45;1.70;;;14.70;78.60;;;;;;5032321;28;20092;-41
2024/04/03 10:45:40;;;;;;;1.73;1.63;;;14.70;78.50;;;;;;5037149;28;20418;-41
2024/04/03 10:48:09;;;;;;;1.80;1.65;;;14.70;78.60;;;;;;5040407;28;20026;-38
2024/04/03 10:50:37;;;;;;;2.92;1.70;;;14.80;78.60;;;;;;5037158;28;20053;-40
2024/04/03 10:53:04;;;;;;;1.90;1.48;;;14.80;78.50;;;;;;5066225;28;20021;-41
2024/04/03 10:55:31;;;;;;;2.13;1.60;;;14.80;78.50;;;;;;5039312;28;20060;-41
2024/04/03 10:58:04;;;;;;;2.60;1.67;;;14.80;79.20;;;;;;5037536;28;20026;-41
2024/04/03 11:00:35;;;;;;;2.97;1.90;;;14.90;78.60;;;;;;5039116;28;20037;-41
2024/04/03 11:03:04;;;;;;;2.75;1.50;;;14.90;78.50;;;;;;5041808;28;20017;-40
2024/04/03 11:05:31;;;;;;;1.73;1.50;;;15.00;78.60;;;;;;5035887;28;20065;-41
2024/04/03 11:07:57;;;;;;;2.25;1.67;;;14.90;78.50;;;;;;5016699;28;20063;-41
2024/04/03 11:10:25;;;;;;;2.70;1.70;;;15.00;78.60;;;;;;5034477;28;20063;-41
2024/04/03 11:13:06;;;;;;;1.70;1.60;;;15.00;78.60;;;;;;5017262;28;20018;-41
2024/04/03 11:15:34;;;;;;;2.08;1.70;;;15.00;78.50;;;;;;5032419;28;20033;-39
2024/04/03 11:18:00;;;;;;;2.15;1.67;;;15.10;78.50;;;;;;5039729;28;20013;-42
2024/04/03 11:20:27;;;;;;;1.80;1.63;;;15.10;79.10;;;;;;5067509;28;20121;-37
2024/04/03 11:22:58;;;;;;;2.75;1.67;;;15.10;78.50;;;;;;5029799;28;20024;-35
2024/04/03 11:25:27;;;;;;;1.70;1.58;;;15.10;78.50;;;;;;5063189;28;20045;-34
2024/04/03 11:27:55;;;;;;;1.70;1.60;;;15.20;78.50;;;;;;5035243;28;20045;-37
2024/04/03 11:30:21;;;;;;;1.77;1.50;;;15.20;78.50;;;;;;5038727;28;20064;-33
2024/04/03 11:32:47;;;;;;;2.45;1.65;;;15.20;78.40;;;;;;5033992;28;20087;-40
2024/04/03 11:35:14;;;;;;;1.95;1.75;;;15.20;78.40;;;;;;5045566;28;20514;-40
2024/04/03 11:37:39;;;;;;;1.85;1.65;;;15.30;78.50;;;;;;5036344;28;20081;-37
2024/04/03 11:40:06;;;;;;;2.20;1.70;;;15.30;78.40;;;;;;5034453;28;20014;-37
2024/04/03 11:42:34;;;;;;;2.00;1.80;;;15.30;78.40;;;;;;5037037;28;20137;-39
2024/04/03 11:44:59;;;;;;;2.13;1.67;;;15.30;78.40;;;;;;5036259;28;20038;-38
2024/04/03 11:47:25;;;;;;;2.75;1.73;;;15.30;78.40;;;;;;5025896;28;20043;-40
2024/04/03 11:49:51;;;;;;;1.88;1.60;;;15.40;79.10;;;;;;5034814;28;20041;-36
2024/04/03 11:52:17;;;;;;;2.60;1.92;;;15.40;78.40;;;;;;5068694;28;20037;-37
2024/04/03 11:54:43;;;;;;;1.98;1.70;;;15.40;78.40;;;;;;5038645;28;20049;-34
2024/04/03 11:57:09;;;;;;;2.22;1.90;;;15.40;78.40;;;;;;5039986;28;20022;-38
2024/04/03 11:59:37;;;;;;;1.75;1.63;;;15.40;78.40;;;;;;5033289;28;20081;-41
2024/04/03 12:02:03;;;;;;;1.67;1.50;;;15.40;78.40;;;;;;5038092;28;20026;-37
2024/04/03 12:04:29;;;;;;;1.80;1.55;;;15.50;78.40;;;;;;5060296;28;20052;-37
2024/04/03 12:06:55;;;;;;;1.92;1.50;;;15.50;78.40;;;;;;5034851;28;20081;-39
2024/04/03 12:09:21;;;;;;;1.65;1.52;;;15.50;78.40;;;;;;5038656;28;20095;-37
2024/04/03 12:11:47;;;;;;;1.75;1.65;;;15.50;78.40;;;;;;5049125;28;20103;-39
2024/04/03 12:14:13;;;;;;;1.80;1.70;;;15.50;78.40;;;;;;5037928;28;20033;-35
2024/04/03 12:16:39;;;;;;;1.83;1.70;;;15.60;78.40;;;;;;5039743;28;20033;-38
2024/04/03 12:19:26;;;;;;;2.00;1.80;;;15.60;78.40;;;;;;5038131;28;20022;-39
2024/04/03 12:21:55;;;;;;;2.08;1.88;;;15.60;78.40;;;;;;5032321;28;20026;-39
2024/04/03 12:24:22;;;;;;;2.10;1.90;;;15.60;78.40;;;;;;5039289;28;20136;-34
2024/04/03 12:26:48;;;;;;;2.00;1.80;;;15.60;78.40;;;;;;5046382;28;20026;-36
2024/04/03 12:29:16;;;;;;;1.80;1.70;;;15.60;78.40;;;;;;5042868;28;20502;-34
2024/04/03 12:31:42;;;;;;;2.20;1.80;;;15.70;78.40;;;;;;5048355;28;20025;-39
2024/04/03 12:34:09;;;;;;;2.47;2.00;;;15.70;78.40;;;;;;5039320;28;20053;-37
2024/04/03 12:36:36;;;;;;;1.85;1.65;;;15.70;78.40;;;;;;5039908;28;20037;-40
2024/04/03 12:39:03;;;;;;;1.85;1.60;;;15.70;78.40;;;;;;5029455;28;20545;-40
2024/04/03 12:41:29;;;;;;;1.63;1.52;;;15.70;78.40;;;;;;5042811;28;20025;-40
2024/04/03 12:43:55;;;;;;;1.83;1.73;;;15.70;78.40;;;;;;5041867;28;20041;-38
2024/04/03 12:46:21;;;;;;;1.70;1.60;;;15.80;78.40;;;;;;5036369;28;20028;-38
2024/04/03 12:48:47;;;;;;;1.75;1.65;;;15.80;78.40;;;;;;5029419;28;20034;-39